Portada
METAR-TAF:

METAR-TAF

Aeroports :

Culiacán, Mèxic

latitud: 24-49N, longitud: 107-24W, altitud: 39 m

Observació

L'informe es va fer fa 2 hores i 46 minuts, a les 04:44 UTC
Vent calma
Temperatura 28°C
Humitat 84%
Pressió 1012 hPa
Visibilitat: 16.1 km
Núvols disperses a una alçada de 3000 ft

METAR: MMCL 190444Z 00000KT 10SM SCT030 28/25 A2987 RMK 8/400

Hora: 01:30 (07:30 UTC)

Pronòstic

L'informe es va fer fa 3 hores i 22 minuts, a les 04:08 UTC
Pronòstic vàlid del 19 a les 06 UTC al 20 a les 06 UTC
Vent 5 kt del Sud-Oest
Visibilitat: 10 km
Núvols disperses a una alçada de 3000 ft
A partir de les 19 a les 1800 UTC
Vent 10 kt del Oest
Visibilitat: 10 km
Núvols disperses a una alçada de 3000 ft
A partir de les 20 a les 0300 UTC
Vent 5 kt del Sud-Oest
Visibilitat: 10 km
Núvols disperses a una alçada de 2000 ft
Cel ennuvolat a una alçada de 20000 ft
en les proximitats, tempesta

TAF: MMCL 190408Z 1906/2006 23005KT P6SM SCT030 FM191800 28010KT P6SM SCT030 FM200300 23005KT P6SM VC TS SCT020 BKN200

Observacions i pronòstics meteorològics de més de 4000 aeroports (METAR i TAF).

Les estacions disponibles són els punts grocs i vermells al mapa.

Posi el ratolí al punt desitjat per veure el nom de l'estació.

Feu clic per veure les observacions i els pronòstics meteorològics.

Per canviar el mapa: feu clic els botons verds amb una creu de color negre per apropar; al botó verd amb un guió per allunyar la imatge; o en les fletxes verdes per a mapes adjacents.


METAR-TAF: